Luray, Virginia
Current Conditions -  °F | °C
As of 12:55 PM on Tuesday 21 Oct 2014 (Local Time) from KLUA Reporting Station
Overcast Overcast  
Wind Chill: 68°   Ceiling: 12000
Heat Index: 68°   Visibility: 10mi
Dew Point: 48°   Wind: 9mph
Humidity: 49%   Direction: 230°SW
Pressure: 29.84"   Gusts: NA
Location:  38.67°N, 78.46°W
Report Text: KLUA 211655Z AUTO 23008KT 10SM SCT047 OVC120 20/09 A2984 RMK AO2
Loading
Personal Weather Stations






























Interactive Weather Map New forecast layout! Learn more

10-Day Weather Forecast

Advertisements
Track Severe Weather on mobile